createdAt,value
2024-03-07T00:02:01.337Z,99585.69
2024-03-07T00:04:48.035Z,99631.78
2024-03-07T00:07:34.437Z,99635.69
2024-03-07T00:10:22.217Z,99584.94
2024-03-07T00:13:08.939Z,99591.50
2024-03-07T00:15:55.226Z,99665.38
2024-03-07T00:18:41.818Z,99586.06
2024-03-07T00:21:28.418Z,99622.25
2024-03-07T00:24:17.532Z,99646.38
2024-03-07T00:27:04.619Z,99622.13
2024-03-07T00:29:58.072Z,99663.28
2024-03-07T00:32:44.352Z,99665.66
2024-03-07T00:35:30.583Z,99613.94
2024-03-07T00:38:17.195Z,99617.59
2024-03-07T00:41:04.120Z,99643.44
2024-03-07T00:43:51.481Z,99618.06
2024-03-07T00:46:37.991Z,99621.03
2024-03-07T00:49:24.734Z,99584.25
2024-03-07T00:52:11.324Z,99657.13
2024-03-07T00:54:57.683Z,99606.06
2024-03-07T00:57:43.909Z,99618.28
2024-03-07T01:00:30.243Z,99610.28
2024-03-07T01:03:18.493Z,99616.91
2024-03-07T01:06:05.137Z,99646.31
2024-03-07T01:08:52.685Z,99651.69
2024-03-07T01:11:39.017Z,99626.16
2024-03-07T01:14:25.577Z,99633.47
2024-03-07T01:17:13.051Z,99574.25
2024-03-07T01:19:59.644Z,99640.41
2024-03-07T01:22:46.236Z,99600.53
2024-03-07T01:25:35.047Z,99615.03
2024-03-07T01:28:23.485Z,99628.06
2024-03-07T01:31:11.363Z,99610.63
2024-03-07T01:33:57.897Z,99647.50
2024-03-07T01:36:44.539Z,99584.00
2024-03-07T01:39:30.676Z,99596.81
2024-03-07T01:42:17.410Z,99610.38
2024-03-07T01:45:04.526Z,99634.53
2024-03-07T01:47:51.298Z,99611.31
2024-03-07T01:50:40.820Z,99595.78
2024-03-07T01:53:28.902Z,99625.44
2024-03-07T01:56:15.447Z,99617.41
2024-03-07T01:59:03.210Z,99622.06
2024-03-07T02:01:50.380Z,99569.47
2024-03-07T02:04:37.188Z,99612.06
2024-03-07T02:07:23.394Z,99565.38
2024-03-07T02:10:10.701Z,99570.91
2024-03-07T02:12:57.281Z,99554.97
2024-03-07T02:15:46.709Z,99592.47
2024-03-07T02:18:34.354Z,99609.28
2024-03-07T02:21:21.046Z,99581.78
2024-03-07T02:24:07.479Z,99606.28
2024-03-07T02:26:53.823Z,99570.66
2024-03-07T02:29:40.274Z,99569.69
2024-03-07T02:32:27.994Z,99571.72
2024-03-07T02:35:16.824Z,99526.00
2024-03-07T02:38:04.767Z,99577.34
2024-03-07T02:40:51.479Z,99576.16
2024-03-07T02:43:39.124Z,99513.78
2024-03-07T02:46:25.625Z,99561.53
2024-03-07T02:49:12.131Z,99539.53
2024-03-07T02:51:58.266Z,99577.78
2024-03-07T02:54:44.709Z,99489.16
2024-03-07T02:57:31.723Z,99569.78
2024-03-07T03:00:21.749Z,99575.53
2024-03-07T03:03:08.677Z,99534.69
2024-03-07T03:10:30.310Z,99540.44
2024-03-07T03:13:17.683Z,99551.25
2024-03-07T03:16:05.911Z,99533.25
2024-03-07T03:18:52.554Z,99544.88
2024-03-07T03:21:39.263Z,99576.06
2024-03-07T03:24:26.706Z,99537.47
2024-03-07T03:27:13.290Z,99572.06
2024-03-07T03:30:01.588Z,99546.69
2024-03-07T03:32:51.275Z,99574.91
2024-03-07T03:35:39.026Z,99567.88
2024-03-07T03:38:26.594Z,99561.75
2024-03-07T03:41:17.931Z,99540.19
2024-03-07T03:44:04.773Z,99555.72
2024-03-07T03:46:51.194Z,99571.00
2024-03-07T03:49:38.093Z,99558.50
2024-03-07T03:52:24.371Z,99556.59
2024-03-07T03:55:11.499Z,99575.56
2024-03-07T03:57:57.667Z,99551.78
2024-03-07T04:00:44.253Z,99536.59
2024-03-07T04:03:31.539Z,99533.53
2024-03-07T04:06:18.003Z,99538.53
2024-03-07T04:09:05.857Z,99496.84
2024-03-07T04:11:52.306Z,99526.03
2024-03-07T04:14:45.016Z,99562.84
2024-03-07T04:17:32.553Z,99558.63
2024-03-07T04:20:20.358Z,99568.38
2024-03-07T04:23:10.893Z,99560.94
2024-03-07T04:25:59.096Z,99557.16
2024-03-07T04:28:46.141Z,99504.56
2024-03-07T04:31:32.472Z,99561.03
2024-03-07T04:34:19.834Z,99558.38
2024-03-07T04:37:06.296Z,99539.94
2024-03-07T04:39:52.420Z,99475.31
2024-03-07T04:42:38.858Z,99556.41
2024-03-07T04:45:25.454Z,99560.03
2024-03-07T04:48:11.998Z,99560.66
2024-03-07T04:50:59.448Z,99549.84
2024-03-07T04:53:45.974Z,99536.16
2024-03-07T04:56:32.614Z,99539.56
2024-03-07T04:59:23.314Z,99567.50
2024-03-07T05:02:09.836Z,99553.25
2024-03-07T05:04:56.276Z,99540.31
2024-03-07T05:07:43.237Z,99524.84
2024-03-07T05:10:30.697Z,99498.25
2024-03-07T05:13:17.103Z,99532.00
2024-03-07T05:16:04.114Z,99569.31
2024-03-07T05:18:51.684Z,99549.56
2024-03-07T05:21:44.009Z,99573.69
2024-03-07T05:24:30.419Z,99571.06
2024-03-07T05:27:16.754Z,99562.19
2024-03-07T05:30:10.030Z,99543.94
2024-03-07T05:32:57.498Z,99544.06
2024-03-07T05:35:44.837Z,99546.13
2024-03-07T05:38:31.461Z,99573.75
2024-03-07T05:41:18.093Z,99543.44
2024-03-07T05:44:09.514Z,99569.41
2024-03-07T05:46:55.940Z,99544.88
2024-03-07T05:49:42.777Z,99540.09
2024-03-07T05:52:29.124Z,99555.34
2024-03-07T05:55:17.130Z,99545.59
2024-03-07T05:58:03.827Z,99523.44
2024-03-07T06:00:53.160Z,99540.97
2024-03-07T06:03:40.691Z,99570.97
2024-03-07T06:06:27.215Z,99551.94
2024-03-07T06:09:14.972Z,99567.75
2024-03-07T06:12:07.510Z,99534.69
2024-03-07T06:14:56.437Z,99555.34
2024-03-07T06:17:46.201Z,99560.75
2024-03-07T06:20:33.190Z,99568.19
2024-03-07T06:23:19.583Z,99545.00
2024-03-07T06:26:13.969Z,99531.81
2024-03-07T06:29:00.580Z,99553.09
2024-03-07T06:31:47.639Z,99512.31
2024-03-07T06:34:34.234Z,99539.72
2024-03-07T06:37:20.831Z,99549.41
2024-03-07T06:40:10.674Z,99534.09
2024-03-07T06:42:57.435Z,99520.63
2024-03-07T06:45:44.110Z,99526.06
2024-03-07T06:48:30.383Z,99479.78
2024-03-07T06:51:19.165Z,99505.91
2024-03-07T06:54:06.743Z,99539.38
2024-03-07T06:56:53.330Z,99540.03
2024-03-07T06:59:39.914Z,99527.34
2024-03-07T07:02:28.744Z,99529.09
2024-03-07T07:05:16.642Z,99560.66
2024-03-07T07:08:02.896Z,99563.53
2024-03-07T07:10:49.315Z,99502.03
2024-03-07T07:13:35.963Z,99525.44
2024-03-07T07:16:22.863Z,99545.84
2024-03-07T07:19:09.150Z,99574.88
2024-03-07T07:21:55.501Z,99462.28
2024-03-07T07:24:42.034Z,99493.47
2024-03-07T07:27:28.498Z,99547.44
2024-03-07T07:30:17.587Z,99512.56
2024-03-07T07:33:04.454Z,99551.16
2024-03-07T07:35:51.285Z,99521.25
2024-03-07T07:38:37.839Z,99526.66
2024-03-07T07:41:24.701Z,99544.28
2024-03-07T07:44:11.330Z,99545.72
2024-03-07T07:46:58.157Z,99541.16
2024-03-07T07:49:44.708Z,99499.81
2024-03-07T07:52:31.382Z,99545.34
2024-03-07T07:55:30.569Z,99536.53
2024-03-07T07:58:16.987Z,99538.50
2024-03-07T08:01:04.107Z,99534.47
2024-03-07T08:03:50.658Z,99538.69
2024-03-07T08:06:37.943Z,99525.84
2024-03-07T08:09:24.172Z,99517.22
2024-03-07T08:12:10.916Z,99488.63
2024-03-07T08:14:57.684Z,99482.69
2024-03-07T08:17:49.064Z,99518.69
2024-03-07T08:20:36.028Z,99517.88
2024-03-07T08:23:24.317Z,99503.69
2024-03-07T08:26:10.801Z,99468.00
2024-03-07T08:28:57.487Z,99521.28
2024-03-07T08:31:45.313Z,99462.16
2024-03-07T08:34:31.925Z,99469.81
2024-03-07T08:37:18.788Z,99492.88
2024-03-07T08:40:07.729Z,99476.78
2024-03-07T08:42:58.508Z,99497.53
2024-03-07T08:45:45.046Z,99466.72
2024-03-07T08:48:31.325Z,99484.00
2024-03-07T08:51:18.801Z,99445.84
2024-03-07T08:54:06.073Z,99459.56
2024-03-07T08:56:52.652Z,99480.13
2024-03-07T08:59:38.856Z,99478.78
2024-03-07T09:02:26.509Z,99494.38
2024-03-07T09:05:12.820Z,99488.72
2024-03-07T09:07:59.591Z,99473.50
2024-03-07T09:10:46.711Z,99459.50
2024-03-07T09:13:33.434Z,99437.56
2024-03-07T09:16:20.968Z,99501.41
2024-03-07T09:19:07.605Z,99484.06
2024-03-07T09:21:54.686Z,99471.13
2024-03-07T09:24:41.358Z,99450.44
2024-03-07T09:27:27.699Z,99465.31
2024-03-07T09:30:16.197Z,99463.66
2024-03-07T09:33:03.433Z,99437.00
2024-03-07T09:35:49.800Z,99480.88
2024-03-07T09:38:36.779Z,99444.59
2024-03-07T09:41:26.326Z,99441.16
2024-03-07T09:44:23.366Z,99456.44
2024-03-07T09:47:12.326Z,99455.41
2024-03-07T09:49:59.792Z,99454.47
2024-03-07T09:52:48.313Z,99409.84
2024-03-07T09:55:34.562Z,99440.91
2024-03-07T09:58:21.655Z,99456.81
2024-03-07T10:01:11.034Z,99461.03
2024-03-07T10:04:12.550Z,99445.69
2024-03-07T10:06:59.387Z,99446.13
2024-03-07T10:09:46.510Z,99482.25
2024-03-07T10:12:33.073Z,99430.72
2024-03-07T10:15:20.437Z,99466.69
2024-03-07T10:18:15.298Z,99455.94
2024-03-07T10:21:05.200Z,99450.50
2024-03-07T10:23:54.307Z,99446.88
2024-03-07T10:26:41.538Z,99440.53
2024-03-07T10:29:28.159Z,99470.16
2024-03-07T10:32:14.956Z,99415.47
2024-03-07T10:35:01.545Z,99454.09
2024-03-07T10:37:49.378Z,99443.94
2024-03-07T10:40:42.322Z,99457.91
2024-03-07T10:43:30.528Z,99444.91
2024-03-07T10:46:18.924Z,99430.84
2024-03-07T10:49:12.427Z,99440.72
2024-03-07T10:52:26.772Z,99419.28
2024-03-07T10:55:31.103Z,99435.28
2024-03-07T10:58:33.940Z,99429.50
2024-03-07T11:01:21.541Z,99434.13
2024-03-07T11:04:08.503Z,99387.84
2024-03-07T11:06:55.208Z,99398.13
2024-03-07T11:09:44.103Z,99402.13
2024-03-07T11:12:31.226Z,99430.44
2024-03-07T11:15:20.976Z,99427.56
2024-03-07T11:18:09.521Z,99400.97
2024-03-07T11:20:58.705Z,99400.44
2024-03-07T11:23:48.688Z,99388.81
2024-03-07T11:26:35.285Z,99384.44
2024-03-07T11:29:56.068Z,99413.00
2024-03-07T11:32:42.705Z,99395.53
2024-03-07T11:35:38.086Z,99314.19
2024-03-07T11:38:35.394Z,99385.06
2024-03-07T11:41:21.882Z,99360.06
2024-03-07T11:44:08.511Z,99364.81
2024-03-07T11:46:55.761Z,99350.31
2024-03-07T11:49:42.308Z,99333.09
2024-03-07T11:52:29.383Z,99360.84
2024-03-07T11:55:17.397Z,99362.63
2024-03-07T11:58:04.290Z,99371.50
2024-03-07T12:00:53.061Z,99339.53
2024-03-07T12:03:39.803Z,99346.22
2024-03-07T12:06:26.413Z,99311.41
2024-03-07T12:09:24.625Z,99334.22
2024-03-07T12:12:11.318Z,99339.97
2024-03-07T12:14:58.028Z,99334.25
2024-03-07T12:17:45.158Z,99312.16
2024-03-07T12:20:34.257Z,99330.53
2024-03-07T12:23:24.926Z,99308.94
2024-03-07T12:26:16.097Z,99324.47
2024-03-07T12:29:14.200Z,99320.97
2024-03-07T12:32:00.798Z,99319.22
2024-03-07T12:34:47.791Z,99299.34
2024-03-07T12:37:37.494Z,99307.16
2024-03-07T12:40:24.771Z,99290.66
2024-03-07T12:43:17.653Z,99334.81
2024-03-07T12:46:06.963Z,99333.09
2024-03-07T12:48:53.489Z,99305.47
2024-03-07T12:51:42.842Z,99336.50
2024-03-07T12:54:29.016Z,99273.44
2024-03-07T12:57:15.325Z,99303.94
2024-03-07T13:00:02.195Z,99309.91
2024-03-07T13:02:51.001Z,99324.78
2024-03-07T13:05:41.565Z,99285.81
2024-03-07T13:08:30.362Z,99327.19
2024-03-07T13:11:17.198Z,99328.53
2024-03-07T13:14:03.657Z,99324.97
2024-03-07T13:16:51.138Z,99318.75
2024-03-07T13:19:39.659Z,99277.09
2024-03-07T13:22:25.971Z,99284.84
2024-03-07T13:25:16.909Z,99311.00
2024-03-07T13:28:14.658Z,99276.59
2024-03-07T13:31:01.060Z,99293.88
2024-03-07T13:33:47.943Z,99217.72
2024-03-07T13:36:34.389Z,99282.69
2024-03-07T13:39:20.883Z,99291.28
2024-03-07T13:42:07.317Z,99315.41
2024-03-07T13:44:53.661Z,99310.31
2024-03-07T13:47:40.149Z,99290.19
2024-03-07T13:50:46.372Z,99313.63
2024-03-07T13:53:48.234Z,99271.25
2024-03-07T13:56:51.439Z,99272.25
2024-03-07T14:00:04.109Z,99261.66
2024-03-07T14:03:17.878Z,99302.41
2024-03-07T14:06:09.910Z,99275.81
2024-03-07T14:09:40.248Z,99230.91
2024-03-07T14:12:45.796Z,99284.66
2024-03-07T14:16:03.598Z,99298.59
2024-03-07T14:19:23.252Z,99303.72
2024-03-07T14:22:33.260Z,99275.25
2024-03-07T14:25:36.428Z,99258.75
2024-03-07T14:28:51.035Z,99283.03
2024-03-07T14:31:41.667Z,99286.56
2024-03-07T14:35:14.615Z,99278.81
2024-03-07T14:38:07.097Z,99272.22
2024-03-07T14:40:54.015Z,99246.75
2024-03-07T14:43:42.309Z,99246.72
2024-03-07T14:46:28.385Z,99235.28
2024-03-07T14:49:17.550Z,99233.81
2024-03-07T14:52:04.879Z,99200.78
2024-03-07T14:54:51.049Z,99231.06
2024-03-07T14:57:37.362Z,99227.25
2024-03-07T15:00:34.426Z,99221.34
2024-03-07T15:03:25.542Z,99211.84
2024-03-07T15:06:15.778Z,99246.41
2024-03-07T15:09:04.015Z,99217.91
2024-03-07T15:11:50.574Z,99206.69
2024-03-07T15:14:39.364Z,99215.19
2024-03-07T15:17:27.017Z,99226.59
2024-03-07T15:20:23.227Z,99243.84
2024-03-07T15:23:09.877Z,99238.09
2024-03-07T15:25:56.563Z,99191.28
2024-03-07T15:28:42.822Z,99181.72
2024-03-07T15:31:29.599Z,99246.47
2024-03-07T15:34:17.604Z,99222.97
2024-03-07T15:37:04.931Z,99205.56
2024-03-07T15:39:52.350Z,99208.09
2024-03-07T15:42:46.856Z,99224.44
2024-03-07T15:45:33.253Z,99235.84
2024-03-07T15:48:24.215Z,99183.94
2024-03-07T15:51:12.844Z,99223.69
2024-03-07T15:53:59.306Z,99213.25
2024-03-07T15:56:45.970Z,99230.44
2024-03-07T15:59:33.738Z,99195.72
2024-03-07T16:02:22.788Z,99185.06
2024-03-07T16:05:10.943Z,99193.72
2024-03-07T16:07:59.228Z,99201.31
2024-03-07T16:10:46.948Z,99206.47
2024-03-07T16:13:33.522Z,99184.75
2024-03-07T16:16:20.930Z,99193.44
2024-03-07T16:19:11.437Z,99186.25
2024-03-07T16:21:58.048Z,99220.63
2024-03-07T16:24:47.550Z,99207.59
2024-03-07T16:27:33.933Z,99193.66
2024-03-07T16:30:22.749Z,99208.44
2024-03-07T16:33:09.355Z,99203.84
2024-03-07T16:35:55.805Z,99185.63
2024-03-07T16:38:42.438Z,99192.41
2024-03-07T16:41:29.552Z,99144.25
2024-03-07T16:44:16.345Z,99153.91
2024-03-07T16:47:03.132Z,99196.59
2024-03-07T16:49:50.712Z,99167.78
2024-03-07T16:52:38.400Z,99187.75
2024-03-07T16:55:25.457Z,99168.78
2024-03-07T16:58:13.699Z,99208.44
2024-03-07T17:01:01.275Z,99203.41
2024-03-07T17:03:47.617Z,99153.13
2024-03-07T17:06:36.733Z,99159.06
2024-03-07T17:09:23.390Z,99184.81
2024-03-07T17:12:09.950Z,99164.25
2024-03-07T17:14:56.200Z,99172.75
2024-03-07T17:17:46.786Z,99177.00
2024-03-07T17:20:33.815Z,99206.13
2024-03-07T17:23:20.063Z,99178.34
2024-03-07T17:26:06.573Z,99177.53
2024-03-07T17:28:53.781Z,99165.16
2024-03-07T17:31:40.046Z,99179.75
2024-03-07T17:34:26.534Z,99179.56
2024-03-07T17:37:14.401Z,99171.72
2024-03-07T17:40:00.942Z,99191.72
2024-03-07T17:42:52.461Z,99189.00
2024-03-07T17:45:39.289Z,99177.63
2024-03-07T17:48:26.821Z,99151.66
2024-03-07T17:51:14.741Z,99201.94
2024-03-07T17:54:05.336Z,99186.34
2024-03-07T17:56:51.990Z,99187.06
2024-03-07T17:59:38.862Z,99210.38
2024-03-07T18:02:28.366Z,99208.59
2024-03-07T18:05:20.109Z,99203.31
2024-03-07T18:08:33.604Z,99218.75
2024-03-07T18:11:24.837Z,99214.88
2024-03-07T18:14:11.626Z,99211.63
2024-03-07T18:16:58.002Z,99191.94
2024-03-07T18:19:45.716Z,99202.38
2024-03-07T18:22:33.836Z,99201.19
2024-03-07T18:25:26.283Z,99164.69
2024-03-07T18:28:15.290Z,99183.78
2024-03-07T18:31:15.404Z,99182.06
2024-03-07T18:34:02.919Z,99170.00
2024-03-07T18:36:49.130Z,99183.00
2024-03-07T18:39:35.834Z,99181.22
2024-03-07T18:42:22.184Z,99182.94
2024-03-07T18:45:12.610Z,99192.19
2024-03-07T18:47:59.023Z,99170.44
2024-03-07T18:50:47.448Z,99178.41
2024-03-07T18:53:35.581Z,99157.31
2024-03-07T18:56:24.300Z,99134.88
2024-03-07T18:59:10.911Z,99152.00
2024-03-07T19:01:57.334Z,99157.22
2024-03-07T19:04:45.186Z,99124.41
2024-03-07T19:07:32.799Z,99179.06
2024-03-07T19:10:19.431Z,99173.94
2024-03-07T19:13:11.053Z,99164.34
2024-03-07T19:15:58.476Z,99128.09
2024-03-07T19:18:44.976Z,99166.09
2024-03-07T19:21:31.349Z,99161.56
2024-03-07T19:24:19.117Z,99150.56
2024-03-07T19:27:09.089Z,99161.94
2024-03-07T19:29:55.965Z,99138.66
2024-03-07T19:32:45.391Z,99140.22
2024-03-07T19:35:34.238Z,99133.13
2024-03-07T19:38:21.012Z,99166.03
2024-03-07T19:41:10.779Z,99124.28
2024-03-07T19:43:58.809Z,99161.72
2024-03-07T19:46:48.513Z,99153.78
2024-03-07T19:49:36.555Z,99167.25
2024-03-07T19:52:23.144Z,99164.38
2024-03-07T19:55:11.064Z,99163.53
2024-03-07T19:57:59.072Z,99159.13
2024-03-07T20:00:47.709Z,99097.84
2024-03-07T20:03:34.938Z,99132.78
2024-03-07T20:06:21.543Z,99151.66
2024-03-07T20:09:07.752Z,99137.91
2024-03-07T20:11:55.392Z,99112.19
2024-03-07T20:14:42.275Z,99149.03
2024-03-07T20:17:28.779Z,99109.31
2024-03-07T20:20:16.856Z,99127.50
2024-03-07T20:23:04.930Z,99089.56
2024-03-07T20:25:51.882Z,99094.66
2024-03-07T20:28:38.459Z,99140.84
2024-03-07T20:31:25.017Z,99118.16
2024-03-07T20:34:11.391Z,99089.47
2024-03-07T20:36:57.765Z,99104.09
2024-03-07T20:39:58.012Z,99114.44
2024-03-07T20:42:55.031Z,99130.00
2024-03-07T20:45:42.444Z,99129.09
2024-03-07T20:48:29.942Z,99121.25
2024-03-07T20:51:16.752Z,99065.53
2024-03-07T20:54:03.403Z,99125.22
2024-03-07T20:56:54.649Z,99114.03
2024-03-07T20:59:41.950Z,99119.72
2024-03-07T21:02:29.325Z,99105.69
2024-03-07T21:05:16.893Z,99123.03
2024-03-07T21:08:03.586Z,99121.22
2024-03-07T21:10:49.889Z,99081.22
2024-03-07T21:13:38.112Z,99063.09
2024-03-07T21:16:24.885Z,99109.69
2024-03-07T21:19:11.987Z,99076.94
2024-03-07T21:21:58.847Z,99110.53
2024-03-07T21:24:45.557Z,99106.75
2024-03-07T21:27:32.241Z,99091.81
2024-03-07T21:30:22.337Z,99091.34
2024-03-07T21:33:09.172Z,99108.47
2024-03-07T21:35:56.033Z,99111.78
2024-03-07T21:38:42.805Z,99083.00
2024-03-07T21:41:29.583Z,99094.75
2024-03-07T21:44:16.347Z,99098.78
2024-03-07T21:47:02.629Z,99090.16
2024-03-07T21:49:51.377Z,99074.50
2024-03-07T21:52:40.838Z,99076.06
2024-03-07T21:55:29.644Z,99100.69
2024-03-07T21:58:17.655Z,99094.41
2024-03-07T22:01:07.319Z,99082.97
2024-03-07T22:03:54.327Z,99090.34
2024-03-07T22:06:44.255Z,99079.94
2024-03-07T22:09:31.053Z,99101.25
2024-03-07T22:12:19.861Z,99100.31
2024-03-07T22:15:07.897Z,99058.28
2024-03-07T22:17:55.163Z,99100.94
2024-03-07T22:20:42.151Z,99070.50
2024-03-07T22:23:29.332Z,99079.13
2024-03-07T22:26:16.124Z,99100.38
2024-03-07T22:29:03.315Z,99090.88
2024-03-07T22:31:49.502Z,99088.41
2024-03-07T22:34:36.221Z,99076.19
2024-03-07T22:37:22.724Z,99071.72
2024-03-07T22:40:12.249Z,99035.28
2024-03-07T22:42:58.817Z,99049.31
2024-03-07T22:45:45.394Z,99048.94
2024-03-07T22:48:35.426Z,99074.03
2024-03-07T22:51:23.736Z,99041.03
2024-03-07T22:54:11.014Z,99063.63
2024-03-07T22:56:57.576Z,99041.47
2024-03-07T22:59:44.198Z,99049.59
2024-03-07T23:02:32.305Z,99039.00
2024-03-07T23:05:18.932Z,99042.13
2024-03-07T23:08:05.897Z,99030.63
2024-03-07T23:10:52.657Z,99038.00
2024-03-07T23:13:39.019Z,99036.13
2024-03-07T23:16:29.547Z,99033.91
2024-03-07T23:19:16.458Z,99043.41
2024-03-07T23:22:03.936Z,99019.72
2024-03-07T23:24:50.983Z,98983.00
2024-03-07T23:27:38.152Z,99002.78
2024-03-07T23:30:25.271Z,99019.69
2024-03-07T23:33:12.266Z,98956.44
2024-03-07T23:35:58.825Z,98983.22
2024-03-07T23:38:45.301Z,99035.25
2024-03-07T23:41:31.842Z,98994.81
2024-03-07T23:44:18.439Z,99031.34
2024-03-07T23:47:04.756Z,99015.78
2024-03-07T23:49:50.929Z,98982.16
2024-03-07T23:52:41.828Z,99027.56
2024-03-07T23:55:28.870Z,99011.22
2024-03-07T23:58:16.367Z,99007.97
